createdAt,value
2018-09-30T00:01:07.824Z,6.56
2018-09-30T00:03:36.635Z,6.53
2018-09-30T00:06:05.477Z,6.50
2018-09-30T00:08:34.288Z,6.34
2018-09-30T00:11:03.167Z,6.24
2018-09-30T00:13:32.005Z,6.20
2018-09-30T00:16:00.809Z,6.22
2018-09-30T00:18:29.628Z,6.26
2018-09-30T00:20:58.486Z,6.22
2018-09-30T00:23:27.313Z,6.23
2018-09-30T00:26:13.667Z,6.23
2018-09-30T00:28:42.789Z,6.14
2018-09-30T00:31:11.849Z,6.17
2018-09-30T00:33:58.796Z,6.09
2018-09-30T00:36:27.759Z,6.02
2018-09-30T00:38:56.476Z,6.01
2018-09-30T00:41:25.299Z,6.38
2018-09-30T00:43:54.114Z,6.09
2018-09-30T00:46:22.935Z,6.12
2018-09-30T00:48:51.773Z,6.04
2018-09-30T00:51:20.575Z,6.04
2018-09-30T00:53:49.385Z,5.92
2018-09-30T00:56:18.225Z,5.95
2018-09-30T00:58:47.027Z,5.92
2018-09-30T01:01:15.869Z,5.91
2018-09-30T01:03:44.688Z,5.91
2018-09-30T01:06:13.507Z,5.87
2018-09-30T01:08:42.309Z,5.83
2018-09-30T01:11:11.135Z,6.22
2018-09-30T01:13:39.942Z,6.03
2018-09-30T01:16:09.104Z,6.00
2018-09-30T01:18:37.926Z,5.96
2018-09-30T01:21:07.113Z,6.00
2018-09-30T01:23:36.181Z,6.04
2018-09-30T01:26:05.094Z,5.99
2018-09-30T01:28:34.157Z,6.02
2018-09-30T01:31:02.996Z,5.90
2018-09-30T01:33:31.898Z,5.73
2018-09-30T01:36:00.733Z,5.66
2018-09-30T01:38:29.554Z,5.64
2018-09-30T01:40:58.380Z,5.59
2018-09-30T01:43:27.197Z,5.60
2018-09-30T01:45:56.024Z,5.58
2018-09-30T01:48:24.842Z,5.60
2018-09-30T01:50:53.640Z,5.54
2018-09-30T01:53:22.489Z,5.86
2018-09-30T01:55:51.328Z,5.62
2018-09-30T01:58:20.182Z,5.63
2018-09-30T02:00:48.996Z,5.58
2018-09-30T02:03:17.855Z,5.52
2018-09-30T02:05:46.679Z,5.60
2018-09-30T02:08:15.503Z,5.59
2018-09-30T02:10:44.344Z,5.54
2018-09-30T02:13:13.170Z,5.43
2018-09-30T02:15:41.997Z,5.41
2018-09-30T02:18:10.803Z,5.40
2018-09-30T02:20:39.641Z,5.40
2018-09-30T02:23:08.482Z,5.73
2018-09-30T02:25:37.300Z,5.46
2018-09-30T02:28:06.116Z,5.80
2018-09-30T02:30:34.959Z,5.39
2018-09-30T02:33:03.781Z,5.27
2018-09-30T02:35:32.643Z,5.22
2018-09-30T02:38:01.470Z,5.23
2018-09-30T02:40:30.315Z,5.23
2018-09-30T02:42:59.106Z,5.24
2018-09-30T02:45:27.949Z,5.30
2018-09-30T02:47:56.777Z,5.36
2018-09-30T02:50:25.635Z,5.29
2018-09-30T02:52:54.455Z,5.54
2018-09-30T02:55:23.305Z,5.28
2018-09-30T02:57:52.122Z,5.61
2018-09-30T03:00:20.981Z,5.24
2018-09-30T03:02:49.899Z,5.28
2018-09-30T03:05:18.719Z,5.31
2018-09-30T03:08:04.965Z,5.23
2018-09-30T03:10:33.808Z,5.10
2018-09-30T03:13:02.676Z,5.05
2018-09-30T03:15:31.474Z,4.95
2018-09-30T03:18:00.298Z,4.90
2018-09-30T03:20:29.126Z,5.23
2018-09-30T03:22:57.956Z,5.00
2018-09-30T03:25:26.799Z,4.89
2018-09-30T03:27:55.624Z,4.88
2018-09-30T03:30:24.462Z,4.88
2018-09-30T03:32:53.310Z,4.87
2018-09-30T03:35:22.157Z,4.82
2018-09-30T03:37:50.989Z,4.73
2018-09-30T03:40:19.862Z,4.74
2018-09-30T03:42:48.696Z,5.12
2018-09-30T03:45:17.597Z,4.87
2018-09-30T03:47:46.431Z,4.82
2018-09-30T03:50:15.257Z,4.73
2018-09-30T03:52:44.082Z,4.70
2018-09-30T03:55:12.918Z,4.72
2018-09-30T03:57:41.740Z,4.72
2018-09-30T04:00:10.580Z,4.73
2018-09-30T04:02:39.428Z,4.71
2018-09-30T04:05:08.252Z,4.69
2018-09-30T04:07:37.082Z,4.68
2018-09-30T04:10:05.952Z,4.72
2018-09-30T04:12:34.748Z,4.68
2018-09-30T04:15:03.629Z,4.56
2018-09-30T04:17:32.676Z,4.52
2018-09-30T04:20:01.398Z,4.52
2018-09-30T04:22:30.211Z,4.54
2018-09-30T04:24:59.022Z,4.54
2018-09-30T04:27:27.836Z,4.50
2018-09-30T04:29:56.693Z,4.47
2018-09-30T04:32:25.556Z,4.49
2018-09-30T04:34:54.409Z,4.44
2018-09-30T04:37:23.243Z,4.74
2018-09-30T04:39:52.086Z,4.38
2018-09-30T04:42:20.904Z,4.36
2018-09-30T04:44:49.721Z,4.32
2018-09-30T04:47:18.556Z,4.31
2018-09-30T04:49:47.389Z,4.27
2018-09-30T04:52:16.271Z,4.23
2018-09-30T04:54:45.140Z,4.27
2018-09-30T04:57:13.970Z,4.26
2018-09-30T04:59:42.807Z,4.21
2018-09-30T05:02:11.633Z,4.26
2018-09-30T05:04:40.485Z,4.18
2018-09-30T05:07:09.309Z,4.56
2018-09-30T05:09:38.128Z,4.25
2018-09-30T05:12:06.949Z,4.14
2018-09-30T05:14:35.770Z,4.13
2018-09-30T05:17:04.597Z,4.11
2018-09-30T05:19:33.430Z,4.12
2018-09-30T05:22:02.250Z,4.02
2018-09-30T05:24:31.083Z,3.93
2018-09-30T05:26:59.902Z,3.95
2018-09-30T05:29:28.782Z,3.91
2018-09-30T05:31:57.608Z,3.86
2018-09-30T05:34:26.445Z,3.85
2018-09-30T05:36:55.310Z,4.23
2018-09-30T05:39:24.123Z,3.93
2018-09-30T05:41:52.968Z,3.92
2018-09-30T05:44:21.759Z,3.88
2018-09-30T05:46:50.617Z,4.23
2018-09-30T05:49:19.490Z,4.30
2018-09-30T05:51:48.290Z,4.12
2018-09-30T05:54:17.211Z,4.22
2018-09-30T05:56:46.036Z,4.22
2018-09-30T05:59:14.879Z,4.00
2018-09-30T06:01:43.721Z,3.92
2018-09-30T06:04:12.530Z,4.06
2018-09-30T06:06:41.362Z,4.07
2018-09-30T06:09:13.163Z,4.00
2018-09-30T06:11:42.546Z,3.92
2018-09-30T06:14:11.750Z,4.00
2018-09-30T06:16:40.344Z,3.98
2018-09-30T06:19:09.263Z,3.93
2018-09-30T06:21:38.632Z,4.32
2018-09-30T06:24:07.882Z,4.14
2018-09-30T06:26:36.719Z,4.17
2018-09-30T06:29:05.593Z,4.20
2018-09-30T06:31:34.419Z,4.20
2018-09-30T06:34:03.253Z,4.27
2018-09-30T06:36:32.053Z,4.33
2018-09-30T06:39:00.894Z,4.33
2018-09-30T06:41:29.705Z,4.42
2018-09-30T06:43:58.533Z,4.47
2018-09-30T06:46:27.403Z,4.52
2018-09-30T06:48:56.293Z,4.57
2018-09-30T06:51:25.121Z,4.65
2018-09-30T06:53:53.972Z,4.81
2018-09-30T06:56:22.797Z,4.95
2018-09-30T06:58:51.624Z,5.08
2018-09-30T07:01:20.424Z,5.10
2018-09-30T07:03:49.238Z,5.16
2018-09-30T07:06:18.108Z,5.27
2018-09-30T07:08:46.922Z,5.37
2018-09-30T07:11:15.789Z,5.48
2018-09-30T07:13:44.679Z,5.65
2018-09-30T07:16:13.540Z,5.80
2018-09-30T07:18:42.366Z,6.31
2018-09-30T07:21:11.259Z,6.34
2018-09-30T07:23:40.135Z,6.78
2018-09-30T07:26:08.972Z,6.74
2018-09-30T07:28:37.818Z,6.83
2018-09-30T07:31:06.646Z,6.95
2018-09-30T07:33:35.530Z,7.01
2018-09-30T07:36:04.424Z,7.10
2018-09-30T07:38:33.259Z,7.25
2018-09-30T07:41:02.085Z,7.40
2018-09-30T07:43:30.973Z,7.73
2018-09-30T07:45:59.812Z,8.15
2018-09-30T07:48:28.632Z,8.38
2018-09-30T07:50:57.550Z,8.51
2018-09-30T07:53:26.379Z,8.62
2018-09-30T07:55:55.229Z,8.76
2018-09-30T07:58:24.026Z,8.90
2018-09-30T08:00:52.883Z,9.02
2018-09-30T08:03:21.710Z,9.17
2018-09-30T08:05:50.548Z,9.31
2018-09-30T08:08:19.472Z,9.50
2018-09-30T08:10:48.305Z,9.69
2018-09-30T08:13:17.168Z,9.89
2018-09-30T08:15:46.499Z,10.29
2018-09-30T08:18:15.318Z,10.72
2018-09-30T08:20:44.162Z,11.02
2018-09-30T08:23:13.022Z,11.05
2018-09-30T08:25:41.888Z,11.05
2018-09-30T08:28:10.745Z,11.07
2018-09-30T08:30:39.618Z,11.21
2018-09-30T08:33:08.439Z,11.25
2018-09-30T08:35:37.283Z,11.33
2018-09-30T08:38:24.024Z,11.45
2018-09-30T08:41:01.637Z,11.61
2018-09-30T08:43:31.456Z,12.22
2018-09-30T08:46:00.730Z,12.78
2018-09-30T08:48:29.581Z,12.78
2018-09-30T08:50:58.529Z,12.72
2018-09-30T08:53:27.711Z,12.66
2018-09-30T08:55:57.245Z,12.67
2018-09-30T08:58:26.948Z,12.87
2018-09-30T09:00:55.852Z,13.47
2018-09-30T09:03:25.310Z,13.64
2018-09-30T09:05:54.175Z,13.93
2018-09-30T09:08:23.034Z,14.42
2018-09-30T09:10:51.908Z,14.85
2018-09-30T09:13:20.758Z,15.72
2018-09-30T09:15:49.601Z,16.20
2018-09-30T09:18:18.452Z,16.59
2018-09-30T09:20:47.307Z,16.79
2018-09-30T09:23:16.301Z,17.43
2018-09-30T09:25:45.156Z,17.92
2018-09-30T09:28:14.114Z,17.88
2018-09-30T09:30:42.867Z,17.61
2018-09-30T09:33:11.825Z,17.67
2018-09-30T09:35:40.555Z,17.47
2018-09-30T09:38:09.396Z,17.38
2018-09-30T09:40:38.246Z,17.25
2018-09-30T09:43:07.122Z,17.71
2018-09-30T09:45:35.994Z,18.64
2018-09-30T09:48:04.876Z,20.16
2018-09-30T09:50:33.775Z,21.86
2018-09-30T09:53:02.620Z,23.15
2018-09-30T09:55:31.480Z,25.10
2018-09-30T09:58:00.318Z,26.25
2018-09-30T10:00:45.390Z,27.17
2018-09-30T10:03:15.696Z,27.94
2018-09-30T10:05:44.782Z,28.38
2018-09-30T10:08:14.000Z,28.55
2018-09-30T10:10:42.796Z,28.95
2018-09-30T10:13:11.704Z,29.04
2018-09-30T10:15:40.490Z,29.35
2018-09-30T10:18:09.309Z,29.51
2018-09-30T10:20:38.176Z,29.62
2018-09-30T10:23:07.044Z,29.49
2018-09-30T10:25:35.887Z,29.68
2018-09-30T10:28:04.750Z,29.60
2018-09-30T10:30:33.643Z,29.79
2018-09-30T10:33:02.463Z,30.03
2018-09-30T10:35:31.306Z,31.47
2018-09-30T10:38:00.132Z,30.63
2018-09-30T10:40:29.063Z,29.99
2018-09-30T10:42:57.896Z,29.82
2018-09-30T10:45:26.726Z,28.67
2018-09-30T10:47:55.581Z,28.76
2018-09-30T10:50:24.423Z,25.62
2018-09-30T10:52:53.264Z,25.94
2018-09-30T10:55:22.259Z,25.10
2018-09-30T10:57:51.097Z,25.11
2018-09-30T11:00:19.947Z,26.43
2018-09-30T11:02:48.790Z,26.55
2018-09-30T11:05:17.666Z,25.13
2018-09-30T11:07:46.518Z,23.83
2018-09-30T11:10:15.445Z,24.75
2018-09-30T11:12:44.187Z,25.83
2018-09-30T11:15:13.001Z,27.58
2018-09-30T11:17:41.828Z,28.33
2018-09-30T11:20:10.679Z,27.81
2018-09-30T11:22:39.644Z,28.21
2018-09-30T11:25:08.398Z,27.68
2018-09-30T11:27:37.248Z,27.43
2018-09-30T11:30:06.141Z,28.25
2018-09-30T11:32:35.008Z,26.07
2018-09-30T11:35:03.832Z,25.35
2018-09-30T11:37:32.673Z,25.66
2018-09-30T11:40:01.504Z,24.69
2018-09-30T11:42:30.378Z,23.75
2018-09-30T11:44:59.223Z,23.41
2018-09-30T11:47:28.124Z,23.11
2018-09-30T11:49:56.959Z,23.09
2018-09-30T11:52:25.832Z,23.06
2018-09-30T11:54:54.642Z,22.65
2018-09-30T11:57:23.514Z,22.10
2018-09-30T11:59:52.331Z,21.80
2018-09-30T12:02:21.173Z,21.55
2018-09-30T12:04:49.998Z,21.66
2018-09-30T12:07:18.821Z,21.59
2018-09-30T12:09:47.662Z,21.30
2018-09-30T12:12:16.494Z,21.24
2018-09-30T12:14:45.371Z,21.33
2018-09-30T12:17:14.200Z,21.67
2018-09-30T12:19:43.036Z,21.72
2018-09-30T12:22:11.895Z,21.69
2018-09-30T12:24:40.726Z,21.50
2018-09-30T12:27:09.580Z,21.24
2018-09-30T12:29:38.398Z,21.42
2018-09-30T12:32:07.574Z,21.65
2018-09-30T12:34:36.487Z,21.74
2018-09-30T12:37:05.336Z,21.96
2018-09-30T12:39:34.184Z,21.88
2018-09-30T12:42:03.015Z,21.69
2018-09-30T12:44:31.838Z,21.68
2018-09-30T12:47:00.700Z,21.55
2018-09-30T12:49:29.537Z,21.27
2018-09-30T12:51:58.651Z,21.26
2018-09-30T12:54:27.484Z,20.93
2018-09-30T12:56:56.361Z,20.68
2018-09-30T12:59:25.197Z,20.58
2018-09-30T13:01:54.031Z,20.40
2018-09-30T13:04:22.854Z,20.25
2018-09-30T13:06:51.709Z,20.34
2018-09-30T13:09:20.548Z,20.53
2018-09-30T13:11:49.387Z,20.68
2018-09-30T13:14:18.310Z,20.78
2018-09-30T13:16:47.119Z,20.68
2018-09-30T13:19:16.000Z,20.56
2018-09-30T13:21:44.830Z,20.52
2018-09-30T13:24:13.676Z,20.31
2018-09-30T13:26:42.491Z,20.07
2018-09-30T13:29:11.347Z,19.88
2018-09-30T13:31:40.156Z,19.82
2018-09-30T13:34:09.014Z,20.16
2018-09-30T13:36:37.876Z,19.95
2018-09-30T13:39:09.003Z,19.94
2018-09-30T13:41:38.187Z,19.92
2018-09-30T13:44:07.064Z,19.86
2018-09-30T13:46:35.935Z,19.93
2018-09-30T13:49:04.835Z,19.92
2018-09-30T13:51:33.705Z,19.85
2018-09-30T13:54:02.609Z,19.77
2018-09-30T13:56:31.475Z,19.96
2018-09-30T13:59:00.296Z,20.04
2018-09-30T14:01:29.140Z,19.74
2018-09-30T14:03:57.969Z,19.72
2018-09-30T14:06:26.801Z,19.64
2018-09-30T14:08:55.650Z,19.55
2018-09-30T14:11:24.535Z,19.48
2018-09-30T14:13:53.355Z,19.82
2018-09-30T14:16:22.202Z,19.69
2018-09-30T14:18:51.016Z,19.85
2018-09-30T14:21:19.829Z,20.05
2018-09-30T14:23:48.688Z,20.20
2018-09-30T14:26:17.518Z,20.25
2018-09-30T14:28:46.370Z,20.69
2018-09-30T14:31:15.199Z,20.65
2018-09-30T14:33:44.051Z,20.68
2018-09-30T14:36:12.905Z,20.46
2018-09-30T14:38:41.842Z,20.38
2018-09-30T14:41:10.710Z,20.33
2018-09-30T14:43:39.859Z,20.35
2018-09-30T14:46:08.741Z,20.19
2018-09-30T14:48:37.617Z,20.09
2018-09-30T14:51:06.420Z,19.84
2018-09-30T14:53:35.258Z,19.75
2018-09-30T14:56:04.082Z,19.69
2018-09-30T14:58:35.851Z,19.87
2018-09-30T15:01:04.695Z,19.49
2018-09-30T15:03:33.563Z,19.42
2018-09-30T15:06:02.464Z,19.29
2018-09-30T15:08:31.214Z,19.20
2018-09-30T15:11:00.093Z,19.12
2018-09-30T15:13:28.932Z,19.05
2018-09-30T15:15:57.757Z,18.91
2018-09-30T15:18:26.603Z,18.80
2018-09-30T15:20:55.430Z,18.66
2018-09-30T15:23:24.275Z,18.60
2018-09-30T15:25:53.118Z,18.78
2018-09-30T15:28:21.982Z,18.56
2018-09-30T15:30:50.804Z,18.53
2018-09-30T15:33:19.628Z,18.50
2018-09-30T15:35:48.723Z,18.47
2018-09-30T15:38:17.544Z,18.41
2018-09-30T15:40:46.386Z,18.35
2018-09-30T15:43:15.219Z,18.32
2018-09-30T15:45:44.041Z,18.16
2018-09-30T15:48:12.889Z,18.09
2018-09-30T15:50:41.743Z,18.03
2018-09-30T15:53:10.612Z,17.93
2018-09-30T15:55:39.445Z,17.87
2018-09-30T15:58:08.323Z,17.82
2018-09-30T16:00:37.160Z,17.79
2018-09-30T16:03:06.050Z,17.73
2018-09-30T16:05:34.865Z,17.61
2018-09-30T16:08:03.695Z,17.76
2018-09-30T16:10:32.858Z,17.49
2018-09-30T16:13:01.818Z,17.40
2018-09-30T16:15:30.605Z,17.37
2018-09-30T16:17:59.445Z,17.41
2018-09-30T16:20:28.297Z,17.26
2018-09-30T16:22:57.147Z,17.23
2018-09-30T16:25:25.995Z,17.17
2018-09-30T16:27:54.837Z,17.12
2018-09-30T16:30:23.702Z,17.08
2018-09-30T16:32:52.527Z,17.02
2018-09-30T16:35:21.586Z,16.89
2018-09-30T16:37:50.425Z,16.86
2018-09-30T16:40:19.308Z,16.75
2018-09-30T16:42:48.168Z,16.74
2018-09-30T16:45:16.992Z,16.66
2018-09-30T16:47:45.836Z,16.54
2018-09-30T16:50:14.655Z,16.70
2018-09-30T16:52:43.486Z,16.46
2018-09-30T16:55:12.449Z,16.43
2018-09-30T16:57:41.309Z,16.64
2018-09-30T17:00:10.600Z,16.67
2018-09-30T17:02:39.451Z,16.34
2018-09-30T17:05:08.261Z,16.21
2018-09-30T17:07:37.113Z,16.03
2018-09-30T17:10:05.958Z,15.92
2018-09-30T17:12:34.784Z,15.80
2018-09-30T17:15:03.626Z,15.70
2018-09-30T17:17:32.433Z,15.61
2018-09-30T17:20:01.272Z,15.52
2018-09-30T17:22:30.088Z,15.46
2018-09-30T17:24:58.945Z,15.63
2018-09-30T17:27:27.857Z,15.31
2018-09-30T17:29:56.709Z,15.18
2018-09-30T17:32:25.522Z,15.04
2018-09-30T17:34:54.335Z,14.95
2018-09-30T17:37:23.753Z,14.94
2018-09-30T17:39:52.583Z,14.87
2018-09-30T17:42:21.404Z,14.69
2018-09-30T17:44:50.285Z,14.57
2018-09-30T17:47:19.119Z,14.43
2018-09-30T17:49:47.970Z,14.35
2018-09-30T17:52:16.795Z,14.30
2018-09-30T17:54:45.666Z,14.24
2018-09-30T17:57:14.501Z,14.23
2018-09-30T17:59:43.321Z,14.12
2018-09-30T18:02:12.145Z,14.00
2018-09-30T18:04:40.968Z,13.96
2018-09-30T18:07:09.817Z,13.94
2018-09-30T18:09:38.655Z,13.94
2018-09-30T18:12:07.582Z,13.88
2018-09-30T18:14:36.370Z,13.85
2018-09-30T18:17:05.564Z,13.77
2018-09-30T18:19:34.386Z,13.75
2018-09-30T18:22:03.241Z,13.75
2018-09-30T18:24:32.076Z,13.71
2018-09-30T18:27:01.168Z,13.68
2018-09-30T18:29:30.666Z,13.71
2018-09-30T18:31:59.544Z,13.74
2018-09-30T18:34:28.393Z,13.75
2018-09-30T18:36:57.193Z,13.73
2018-09-30T18:39:26.064Z,13.72
2018-09-30T18:41:54.895Z,14.06
2018-09-30T18:44:23.783Z,13.82
2018-09-30T18:46:52.623Z,13.77
2018-09-30T18:49:21.480Z,13.74
2018-09-30T18:51:50.314Z,13.72
2018-09-30T18:54:19.164Z,13.68
2018-09-30T18:56:48.062Z,13.67
2018-09-30T18:59:19.334Z,13.66
2018-09-30T19:01:48.257Z,13.63
2018-09-30T19:04:17.096Z,13.58
2018-09-30T19:06:46.003Z,13.52
2018-09-30T19:09:14.823Z,13.50
2018-09-30T19:11:43.735Z,13.47
2018-09-30T19:14:12.814Z,13.45
2018-09-30T19:16:42.630Z,13.42
2018-09-30T19:19:11.519Z,13.42
2018-09-30T19:21:40.313Z,13.45
2018-09-30T19:24:09.251Z,13.47
2018-09-30T19:26:38.096Z,13.48
2018-09-30T19:29:06.942Z,13.47
2018-09-30T19:31:38.755Z,13.45
2018-09-30T19:34:07.642Z,13.43
2018-09-30T19:36:36.583Z,13.38
2018-09-30T19:39:08.157Z,13.38
2018-09-30T19:41:37.021Z,13.39
2018-09-30T19:44:05.891Z,13.41
2018-09-30T19:46:34.793Z,13.40
2018-09-30T19:49:03.655Z,13.41
2018-09-30T19:51:32.516Z,13.80
2018-09-30T19:54:01.548Z,13.57
2018-09-30T19:56:30.280Z,13.59
2018-09-30T19:58:59.111Z,13.97
2018-09-30T20:01:27.992Z,13.75
2018-09-30T20:03:56.841Z,13.72
2018-09-30T20:06:25.650Z,13.70
2018-09-30T20:08:54.538Z,13.70
2018-09-30T20:11:23.368Z,13.64
2018-09-30T20:13:52.201Z,13.62
2018-09-30T20:16:21.035Z,13.63
2018-09-30T20:18:49.864Z,13.59
2018-09-30T20:21:18.696Z,13.61
2018-09-30T20:23:47.561Z,13.67
2018-09-30T20:26:16.379Z,13.72
2018-09-30T20:28:45.550Z,13.71
2018-09-30T20:31:14.059Z,14.04
2018-09-30T20:33:42.903Z,13.85
2018-09-30T20:36:11.754Z,13.79
2018-09-30T20:38:40.575Z,13.76
2018-09-30T20:41:09.407Z,13.74
2018-09-30T20:43:38.210Z,13.68
2018-09-30T20:46:07.135Z,13.68
2018-09-30T20:48:35.976Z,13.70
2018-09-30T20:51:04.816Z,13.70
2018-09-30T20:53:33.672Z,14.07
2018-09-30T20:56:02.555Z,13.81
2018-09-30T20:58:31.318Z,13.74
2018-09-30T21:01:00.152Z,13.73
2018-09-30T21:03:28.964Z,13.71
2018-09-30T21:06:24.688Z,13.64
2018-09-30T21:08:53.527Z,13.64
2018-09-30T21:11:22.377Z,13.62
2018-09-30T21:13:51.201Z,13.56
2018-09-30T21:16:20.043Z,13.54
2018-09-30T21:18:49.004Z,13.94
2018-09-30T21:21:17.724Z,13.65
2018-09-30T21:23:46.541Z,13.60
2018-09-30T21:26:15.340Z,13.55
2018-09-30T21:28:44.179Z,13.52
2018-09-30T21:31:13.005Z,13.90
2018-09-30T21:33:41.836Z,13.58
2018-09-30T21:36:10.681Z,13.52
2018-09-30T21:38:39.536Z,13.53
2018-09-30T21:41:08.369Z,13.41
2018-09-30T21:43:37.202Z,13.34
2018-09-30T21:46:06.052Z,13.33
2018-09-30T21:48:34.900Z,13.29
2018-09-30T21:51:03.735Z,13.26
2018-09-30T21:53:32.565Z,13.22
2018-09-30T21:56:01.388Z,13.16
2018-09-30T21:58:30.223Z,13.15
2018-09-30T22:01:05.404Z,13.08
2018-09-30T22:03:34.246Z,13.09
2018-09-30T22:06:03.064Z,13.06
2018-09-30T22:08:31.869Z,13.43
2018-09-30T22:11:00.717Z,13.13
2018-09-30T22:13:29.536Z,13.12
2018-09-30T22:15:58.388Z,13.46
2018-09-30T22:18:27.215Z,13.18
2018-09-30T22:20:56.057Z,13.08
2018-09-30T22:23:24.874Z,13.05
2018-09-30T22:25:53.722Z,12.98
2018-09-30T22:28:22.542Z,12.93
2018-09-30T22:30:51.389Z,12.94
2018-09-30T22:33:20.216Z,12.97
2018-09-30T22:35:49.052Z,12.99
2018-09-30T22:38:17.896Z,13.35
2018-09-30T22:40:46.719Z,13.18
2018-09-30T22:43:15.549Z,13.22
2018-09-30T22:45:44.419Z,13.15
2018-09-30T22:48:13.174Z,13.16
2018-09-30T22:50:42.021Z,13.16
2018-09-30T22:53:10.942Z,13.25
2018-09-30T22:55:39.699Z,13.24
2018-09-30T22:58:08.516Z,13.21
2018-09-30T23:00:37.353Z,13.18
2018-09-30T23:03:06.280Z,13.14
2018-09-30T23:05:35.088Z,13.12
2018-09-30T23:08:03.917Z,13.09
2018-09-30T23:10:32.752Z,13.06
2018-09-30T23:13:01.586Z,12.99
2018-09-30T23:15:30.433Z,12.97
2018-09-30T23:17:59.324Z,12.92
2018-09-30T23:20:28.132Z,12.87
2018-09-30T23:22:56.923Z,12.84
2018-09-30T23:25:25.763Z,12.74
2018-09-30T23:27:54.583Z,12.68
2018-09-30T23:30:23.432Z,12.61
2018-09-30T23:32:52.237Z,12.48
2018-09-30T23:35:21.065Z,12.37
2018-09-30T23:37:49.890Z,12.30
2018-09-30T23:40:18.808Z,12.27
2018-09-30T23:42:47.625Z,12.19
2018-09-30T23:45:16.472Z,12.11
2018-09-30T23:47:45.299Z,12.04
2018-09-30T23:50:14.185Z,12.00
2018-09-30T23:52:43.030Z,11.97
2018-09-30T23:55:11.865Z,11.93
2018-09-30T23:57:40.803Z,11.90
